createdAt,value
2022-10-31T00:01:24.656Z,30.67
2022-10-31T00:03:51.703Z,44.50
2022-10-31T00:06:19.578Z,30.07
2022-10-31T00:09:05.044Z,23.00
2022-10-31T00:11:32.447Z,22.33
2022-10-31T00:14:00.434Z,26.57
2022-10-31T00:16:29.463Z,28.60
2022-10-31T00:19:00.422Z,27.87
2022-10-31T00:21:28.582Z,21.67
2022-10-31T00:23:55.694Z,25.93
2022-10-31T00:26:22.712Z,28.20
2022-10-31T00:28:50.638Z,28.70
2022-10-31T00:31:18.163Z,25.93
2022-10-31T00:33:45.771Z,28.40
2022-10-31T00:36:19.766Z,44.60
2022-10-31T00:38:48.435Z,41.23
2022-10-31T00:41:18.578Z,49.03
2022-10-31T00:43:45.623Z,36.20
2022-10-31T00:46:14.288Z,41.67
2022-10-31T00:48:41.250Z,59.60
2022-10-31T00:51:09.192Z,49.63
2022-10-31T00:53:36.325Z,45.57
2022-10-31T00:56:04.659Z,56.37
2022-10-31T00:58:31.674Z,52.93
2022-10-31T01:00:58.970Z,46.63
2022-10-31T01:03:30.104Z,47.87
2022-10-31T01:06:09.448Z,46.43
2022-10-31T01:08:38.172Z,62.70
2022-10-31T01:11:09.026Z,78.87
2022-10-31T01:13:36.993Z,53.67
2022-10-31T01:16:06.888Z,63.80
2022-10-31T01:18:35.052Z,48.50
2022-10-31T01:21:13.408Z,50.90
2022-10-31T01:23:41.546Z,77.87
2022-10-31T01:26:15.387Z,62.53
2022-10-31T01:28:51.735Z,42.13
2022-10-31T01:31:22.289Z,52.20
2022-10-31T01:33:49.747Z,45.67
2022-10-31T01:36:30.067Z,45.00
2022-10-31T01:39:07.103Z,58.23
2022-10-31T01:41:40.010Z,41.47
2022-10-31T01:44:16.054Z,46.10
2022-10-31T01:46:51.524Z,55.97
2022-10-31T01:49:25.713Z,38.80
2022-10-31T01:52:00.868Z,41.20
2022-10-31T01:54:35.728Z,39.47
2022-10-31T01:57:06.663Z,38.30
2022-10-31T01:59:40.908Z,39.90
2022-10-31T02:02:08.609Z,42.50
2022-10-31T02:04:36.820Z,37.07
2022-10-31T02:07:10.582Z,39.10
2022-10-31T02:09:39.188Z,34.50
2022-10-31T02:12:08.056Z,38.73
2022-10-31T02:14:36.569Z,30.63
2022-10-31T02:17:03.494Z,32.27
2022-10-31T02:20:09.927Z,37.87
2022-10-31T02:23:04.496Z,28.97
2022-10-31T02:25:37.173Z,31.40
2022-10-31T02:28:31.133Z,29.77
2022-10-31T02:31:37.039Z,42.53
2022-10-31T02:34:22.309Z,47.17
2022-10-31T02:36:59.703Z,50.73
2022-10-31T02:39:54.453Z,46.63
2022-10-31T02:42:44.893Z,69.50
2022-10-31T02:45:29.970Z,70.63
2022-10-31T02:48:03.732Z,38.43
2022-10-31T02:50:36.760Z,33.53
2022-10-31T02:53:04.660Z,37.97
2022-10-31T02:55:31.488Z,72.27
2022-10-31T02:58:06.036Z,44.07
2022-10-31T03:00:53.116Z,32.17
2022-10-31T03:04:12.098Z,56.93
2022-10-31T03:07:12.894Z,34.67
2022-10-31T03:10:15.598Z,76.57
2022-10-31T03:12:58.214Z,54.80
2022-10-31T03:15:34.693Z,32.70
2022-10-31T03:18:11.804Z,57.73
2022-10-31T03:20:43.757Z,42.13
2022-10-31T03:23:16.668Z,41.33
2022-10-31T03:25:45.233Z,44.23
2022-10-31T03:28:17.077Z,41.47
2022-10-31T03:30:46.588Z,35.87
2022-10-31T03:33:20.091Z,28.97
2022-10-31T03:35:49.729Z,38.40
2022-10-31T03:38:17.290Z,26.13
2022-10-31T03:40:47.759Z,35.50
2022-10-31T03:45:49.823Z,33.33
2022-10-31T03:48:19.984Z,31.97
2022-10-31T03:50:57.208Z,26.43
2022-10-31T03:53:36.428Z,23.77
2022-10-31T03:56:36.731Z,30.23
2022-10-31T03:59:18.579Z,36.50
2022-10-31T04:01:53.390Z,30.93
2022-10-31T04:04:21.611Z,49.33
2022-10-31T04:06:50.558Z,45.70
2022-10-31T04:09:19.696Z,41.73
2022-10-31T04:11:55.205Z,36.63
2022-10-31T04:14:26.775Z,43.27
2022-10-31T04:16:54.422Z,40.33
2022-10-31T04:19:21.419Z,28.57
2022-10-31T04:21:48.378Z,50.20
2022-10-31T04:24:15.425Z,61.67
2022-10-31T04:26:42.349Z,36.43
2022-10-31T04:29:09.323Z,31.27
2022-10-31T04:31:36.288Z,26.90
2022-10-31T04:34:03.286Z,38.90
2022-10-31T04:36:30.254Z,38.73
2022-10-31T04:38:57.190Z,35.80
2022-10-31T04:41:24.165Z,33.27
2022-10-31T04:43:51.264Z,40.77
2022-10-31T04:46:18.149Z,29.30
2022-10-31T04:48:45.336Z,29.57
2022-10-31T04:51:12.893Z,28.97
2022-10-31T04:53:39.884Z,41.77
2022-10-31T04:56:07.388Z,33.00
2022-10-31T04:58:34.414Z,28.17
2022-10-31T05:01:01.472Z,35.73
2022-10-31T05:03:28.503Z,29.03
2022-10-31T05:05:55.528Z,43.70
2022-10-31T05:08:22.478Z,26.03
2022-10-31T05:10:49.470Z,19.60
2022-10-31T05:13:16.679Z,27.07
2022-10-31T05:15:43.789Z,27.70
2022-10-31T05:18:10.820Z,27.30
2022-10-31T05:20:37.928Z,36.97
2022-10-31T05:23:04.888Z,31.40
2022-10-31T05:25:31.828Z,25.17
2022-10-31T05:27:59.378Z,29.30
2022-10-31T05:30:31.863Z,30.43
2022-10-31T05:32:59.378Z,31.67
2022-10-31T05:35:33.052Z,40.43
2022-10-31T05:38:01.012Z,46.80
2022-10-31T05:40:29.378Z,25.43
2022-10-31T05:43:00.135Z,37.07
2022-10-31T05:45:27.486Z,22.63
2022-10-31T05:48:01.319Z,40.17
2022-10-31T05:50:32.818Z,31.13
2022-10-31T05:53:04.008Z,26.10
2022-10-31T05:55:32.170Z,27.67
2022-10-31T05:58:00.086Z,27.37
2022-10-31T06:00:28.765Z,23.47
2022-10-31T06:03:04.788Z,23.73
2022-10-31T06:05:32.338Z,20.43
2022-10-31T06:08:00.678Z,27.90
2022-10-31T06:10:29.497Z,23.63
2022-10-31T06:12:56.511Z,22.07
2022-10-31T06:15:24.831Z,22.77
2022-10-31T06:18:04.465Z,22.37
2022-10-31T06:20:32.207Z,31.20
2022-10-31T06:22:59.662Z,36.80
2022-10-31T06:25:27.609Z,30.20
2022-10-31T06:27:55.098Z,26.50
2022-10-31T06:30:22.280Z,16.43
2022-10-31T06:32:50.635Z,20.70
2022-10-31T06:35:18.687Z,28.50
2022-10-31T06:37:53.838Z,28.00
2022-10-31T06:40:20.818Z,32.63
2022-10-31T06:42:47.861Z,26.37
2022-10-31T06:45:14.973Z,27.00
2022-10-31T06:48:03.826Z,24.53
2022-10-31T06:50:28.783Z,17.23
2022-10-31T06:52:58.153Z,20.03
2022-10-31T06:55:27.285Z,23.10
2022-10-31T06:57:58.876Z,31.73
2022-10-31T07:00:31.062Z,16.40
2022-10-31T07:03:08.483Z,17.80
2022-10-31T07:05:35.527Z,21.43
2022-10-31T07:08:08.210Z,16.80
2022-10-31T07:10:40.364Z,30.13
2022-10-31T07:13:13.857Z,27.63
2022-10-31T07:15:43.595Z,28.40
2022-10-31T07:18:13.634Z,27.50
2022-10-31T07:20:40.681Z,23.20
2022-10-31T07:23:08.883Z,25.33
2022-10-31T07:25:35.814Z,22.27
2022-10-31T07:28:02.960Z,21.27
2022-10-31T07:30:30.263Z,31.13
2022-10-31T07:32:57.488Z,17.87
2022-10-31T07:35:28.175Z,23.70
2022-10-31T07:37:56.169Z,30.73
2022-10-31T07:40:24.799Z,25.50
2022-10-31T07:42:53.793Z,37.40
2022-10-31T07:45:22.138Z,22.87
2022-10-31T07:47:52.798Z,32.87
2022-10-31T07:50:29.250Z,27.23
2022-10-31T07:53:04.104Z,24.87
2022-10-31T07:55:31.933Z,40.50
2022-10-31T07:58:26.272Z,30.47
2022-10-31T08:00:53.371Z,36.50
2022-10-31T08:03:21.142Z,33.03
2022-10-31T08:05:48.514Z,31.10
2022-10-31T08:08:17.375Z,27.73
2022-10-31T08:10:44.687Z,21.03
2022-10-31T08:13:14.794Z,42.00
2022-10-31T08:15:43.378Z,40.00
2022-10-31T08:18:14.854Z,43.97
2022-10-31T08:20:45.519Z,25.10
2022-10-31T08:23:14.548Z,23.13
2022-10-31T08:25:43.366Z,29.70
2022-10-31T08:28:12.637Z,20.20
2022-10-31T08:30:40.749Z,22.47
2022-10-31T08:33:16.687Z,24.77
2022-10-31T08:35:44.843Z,37.87
2022-10-31T08:38:14.149Z,45.43
2022-10-31T08:40:41.565Z,31.53
2022-10-31T08:43:13.794Z,25.10
2022-10-31T08:45:41.295Z,21.53
2022-10-31T08:48:15.638Z,25.80
2022-10-31T08:50:44.329Z,21.00
2022-10-31T08:53:20.810Z,22.80
2022-10-31T08:55:48.410Z,14.70
2022-10-31T08:58:18.890Z,17.70
2022-10-31T09:00:49.590Z,13.40
2022-10-31T09:03:24.239Z,31.83
2022-10-31T09:05:52.564Z,17.33
2022-10-31T09:08:19.589Z,17.37
2022-10-31T09:10:47.083Z,17.03
2022-10-31T09:13:21.055Z,18.57
2022-10-31T09:15:51.190Z,23.83
2022-10-31T09:18:23.512Z,16.87
2022-10-31T09:20:51.606Z,13.87
2022-10-31T09:23:21.727Z,17.47
2022-10-31T09:25:51.807Z,18.03
2022-10-31T09:28:24.280Z,18.47
2022-10-31T09:30:53.607Z,17.03
2022-10-31T09:33:21.924Z,16.70
2022-10-31T09:35:48.996Z,19.80
2022-10-31T09:38:20.420Z,18.43
2022-10-31T09:41:08.016Z,20.73
2022-10-31T09:44:02.466Z,19.00
2022-10-31T09:46:48.237Z,18.13
2022-10-31T09:49:46.279Z,18.97
2022-10-31T09:52:32.607Z,17.40
2022-10-31T09:55:08.059Z,42.47
2022-10-31T09:57:37.791Z,21.23
2022-10-31T10:00:17.038Z,19.20
2022-10-31T10:03:11.638Z,22.40
2022-10-31T10:05:47.177Z,17.27
2022-10-31T10:08:21.980Z,18.00
2022-10-31T10:11:07.288Z,17.77
2022-10-31T10:14:15.708Z,17.67
2022-10-31T10:17:03.650Z,20.30
2022-10-31T10:20:07.019Z,20.30
2022-10-31T10:23:21.709Z,17.97
2022-10-31T10:25:59.232Z,19.83
2022-10-31T10:28:39.511Z,22.47
2022-10-31T10:31:17.436Z,19.93
2022-10-31T10:34:03.556Z,21.43
2022-10-31T10:36:45.298Z,22.70
2022-10-31T10:39:48.669Z,23.17
2022-10-31T10:42:35.838Z,23.60
2022-10-31T10:45:36.790Z,25.60
2022-10-31T10:48:23.898Z,22.37
2022-10-31T10:50:52.833Z,21.90
2022-10-31T10:53:50.259Z,21.57
2022-10-31T10:56:29.045Z,19.60
2022-10-31T10:58:57.365Z,20.57
2022-10-31T11:01:24.655Z,22.37
2022-10-31T11:03:52.506Z,23.73
2022-10-31T11:06:27.264Z,21.00
2022-10-31T11:08:54.868Z,22.77
2022-10-31T11:11:31.809Z,21.07
2022-10-31T11:14:06.153Z,21.87
2022-10-31T11:16:45.134Z,20.80
2022-10-31T11:19:28.794Z,22.20
2022-10-31T11:22:07.501Z,25.33
2022-10-31T11:24:41.700Z,22.10
2022-10-31T11:27:23.524Z,23.03
2022-10-31T11:29:56.804Z,27.00
2022-10-31T11:32:29.483Z,24.77
2022-10-31T11:35:02.096Z,26.10
2022-10-31T11:37:38.680Z,24.80
2022-10-31T11:40:08.510Z,28.73
2022-10-31T11:42:42.609Z,25.30
2022-10-31T11:45:32.059Z,26.80
2022-10-31T11:48:02.394Z,23.43
2022-10-31T11:50:41.687Z,26.83
2022-10-31T11:53:36.175Z,28.20
2022-10-31T11:56:15.936Z,24.43
2022-10-31T11:58:43.789Z,28.30
2022-10-31T12:01:33.695Z,25.30
2022-10-31T12:04:14.415Z,26.63
2022-10-31T12:06:44.377Z,25.37
2022-10-31T12:09:29.039Z,25.37
2022-10-31T12:12:52.153Z,27.57
2022-10-31T12:15:32.032Z,25.33
2022-10-31T12:18:16.295Z,28.03
2022-10-31T12:21:02.623Z,27.00
2022-10-31T12:23:47.476Z,28.17
2022-10-31T12:26:54.872Z,28.80
2022-10-31T12:29:34.586Z,28.23
2022-10-31T12:32:32.085Z,30.10
2022-10-31T12:35:05.361Z,28.80
2022-10-31T12:37:41.631Z,30.10
2022-10-31T12:40:29.894Z,36.23
2022-10-31T12:43:17.942Z,30.37
2022-10-31T12:45:58.166Z,30.47
2022-10-31T12:48:55.543Z,26.57
2022-10-31T12:51:42.718Z,32.63
2022-10-31T12:54:18.294Z,33.10
2022-10-31T12:56:56.964Z,32.03
2022-10-31T12:59:37.284Z,29.23
2022-10-31T13:02:22.599Z,35.30
2022-10-31T13:05:06.122Z,35.97
2022-10-31T13:07:49.702Z,32.00
2022-10-31T13:10:31.621Z,32.40
2022-10-31T13:13:21.609Z,36.07
2022-10-31T13:16:02.273Z,31.83
2022-10-31T13:18:36.566Z,31.57
2022-10-31T13:21:14.425Z,36.47
2022-10-31T13:23:51.096Z,36.23
2022-10-31T13:26:49.494Z,32.77
2022-10-31T13:29:42.912Z,36.50
2022-10-31T13:32:11.814Z,34.87
2022-10-31T13:34:56.243Z,38.27
2022-10-31T13:37:39.378Z,38.60
2022-10-31T13:40:35.448Z,41.70
2022-10-31T13:43:33.493Z,39.43
2022-10-31T13:46:00.424Z,36.10
2022-10-31T13:48:34.981Z,37.70
2022-10-31T13:51:08.750Z,39.23
2022-10-31T13:54:20.345Z,43.57
2022-10-31T13:56:54.175Z,37.13
2022-10-31T13:59:25.436Z,38.27
2022-10-31T14:02:03.197Z,40.10
2022-10-31T14:07:23.890Z,40.00
2022-10-31T14:10:08.565Z,40.80
2022-10-31T14:12:40.324Z,42.77
2022-10-31T14:15:27.577Z,36.53
2022-10-31T14:18:00.388Z,36.20
2022-10-31T14:20:44.636Z,36.97
2022-10-31T14:23:36.987Z,44.80
2022-10-31T14:26:29.487Z,41.47
2022-10-31T14:29:15.785Z,48.10
2022-10-31T14:31:47.443Z,40.43
2022-10-31T14:34:28.217Z,41.50
2022-10-31T14:37:28.472Z,40.40
2022-10-31T14:40:26.492Z,38.90
2022-10-31T14:43:23.504Z,46.30
2022-10-31T14:46:16.982Z,47.57
2022-10-31T14:49:00.511Z,38.47
2022-10-31T14:51:45.411Z,48.63
2022-10-31T14:54:36.742Z,42.77
2022-10-31T14:57:42.633Z,46.83
2022-10-31T15:00:17.873Z,52.03
2022-10-31T15:02:47.632Z,44.73
2022-10-31T15:05:15.112Z,46.73
2022-10-31T15:07:59.570Z,46.90
2022-10-31T15:10:33.258Z,43.17
2022-10-31T15:13:32.842Z,48.30
2022-10-31T15:16:00.384Z,51.47
2022-10-31T15:18:29.917Z,47.80
2022-10-31T15:20:58.252Z,48.40
2022-10-31T15:23:30.552Z,50.30
2022-10-31T15:26:06.207Z,81.50
2022-10-31T15:28:33.497Z,48.43
2022-10-31T15:31:04.176Z,51.40
2022-10-31T15:33:43.927Z,50.77
2022-10-31T15:36:27.728Z,57.30
2022-10-31T15:38:58.932Z,52.77
2022-10-31T15:41:40.134Z,49.77
2022-10-31T15:44:24.222Z,53.33
2022-10-31T15:47:04.658Z,53.73
2022-10-31T15:49:37.777Z,48.90
2022-10-31T15:52:48.723Z,52.37
2022-10-31T15:55:17.198Z,53.50
2022-10-31T15:57:47.629Z,72.63
2022-10-31T16:00:36.447Z,69.47
2022-10-31T16:03:29.535Z,60.03
2022-10-31T16:06:00.569Z,63.20
2022-10-31T16:08:30.163Z,70.37
2022-10-31T16:11:15.537Z,90.43
2022-10-31T16:13:53.077Z,89.50
2022-10-31T16:16:34.541Z,94.57
2022-10-31T16:19:06.073Z,95.07
2022-10-31T16:21:38.406Z,76.03
2022-10-31T16:24:32.327Z,81.40
2022-10-31T16:27:08.137Z,63.13
2022-10-31T16:29:44.647Z,76.43
2022-10-31T16:32:54.619Z,90.30
2022-10-31T16:35:39.181Z,95.90
2022-10-31T16:38:06.903Z,101.07
2022-10-31T16:40:34.176Z,105.93
2022-10-31T16:43:02.481Z,155.57
2022-10-31T16:45:33.278Z,104.97
2022-10-31T16:48:13.412Z,121.17
2022-10-31T16:50:40.344Z,108.07
2022-10-31T16:53:14.009Z,115.33
2022-10-31T16:56:03.933Z,134.77
2022-10-31T16:58:36.630Z,81.80
2022-10-31T17:01:07.440Z,116.33
2022-10-31T17:03:34.870Z,89.73
2022-10-31T17:06:01.885Z,114.97
2022-10-31T17:08:28.828Z,103.60
2022-10-31T17:10:58.012Z,92.13
2022-10-31T17:13:29.248Z,106.47
2022-10-31T17:15:59.982Z,79.60
2022-10-31T17:18:28.120Z,96.17
2022-10-31T17:21:02.041Z,114.97
2022-10-31T17:23:30.086Z,119.30
2022-10-31T17:25:57.779Z,113.17
2022-10-31T17:28:26.858Z,108.23
2022-10-31T17:30:56.318Z,127.37
2022-10-31T17:33:23.197Z,152.87
2022-10-31T17:35:50.720Z,126.83
2022-10-31T17:38:17.677Z,101.10
2022-10-31T17:40:45.312Z,125.67
2022-10-31T17:43:12.878Z,362.83
2022-10-31T17:45:41.876Z,181.67
2022-10-31T17:48:12.675Z,164.67
2022-10-31T17:50:39.880Z,137.47
2022-10-31T17:53:06.853Z,114.23
2022-10-31T17:55:36.245Z,116.80
2022-10-31T17:58:05.429Z,130.23
2022-10-31T18:00:32.658Z,114.93
2022-10-31T18:03:00.197Z,106.40
2022-10-31T18:05:27.395Z,110.17
2022-10-31T18:07:55.750Z,104.47
2022-10-31T18:10:23.594Z,87.83
2022-10-31T18:12:50.504Z,95.53
2022-10-31T18:15:18.458Z,97.07
2022-10-31T18:17:46.708Z,91.63
2022-10-31T18:20:14.058Z,103.03
2022-10-31T18:22:40.948Z,83.17
2022-10-31T18:25:09.211Z,87.53
2022-10-31T18:27:36.138Z,80.40
2022-10-31T18:30:03.868Z,80.57
2022-10-31T18:32:30.825Z,76.97
2022-10-31T18:34:57.807Z,76.40
2022-10-31T18:37:24.725Z,69.67
2022-10-31T18:39:51.727Z,68.23
2022-10-31T18:42:18.656Z,62.30
2022-10-31T18:44:45.585Z,55.80
2022-10-31T18:47:12.629Z,58.00
2022-10-31T18:49:39.690Z,54.80
2022-10-31T18:52:06.687Z,65.20
2022-10-31T18:54:33.632Z,58.73
2022-10-31T18:57:00.619Z,55.07
2022-10-31T18:59:27.633Z,56.17
2022-10-31T19:01:54.621Z,53.43
2022-10-31T19:04:21.782Z,55.00
2022-10-31T19:06:48.743Z,50.73
2022-10-31T19:09:15.730Z,48.70
2022-10-31T19:11:42.760Z,42.23
2022-10-31T19:14:13.729Z,43.70
2022-10-31T19:16:41.482Z,39.37
2022-10-31T19:19:10.092Z,36.57
2022-10-31T19:21:37.042Z,27.20
2022-10-31T19:24:04.651Z,39.93
2022-10-31T19:26:34.482Z,41.77
2022-10-31T19:29:01.481Z,41.10
2022-10-31T19:31:29.033Z,35.60
2022-10-31T19:33:56.168Z,43.67
2022-10-31T19:36:24.413Z,39.43
2022-10-31T19:38:53.314Z,32.17
2022-10-31T19:41:25.114Z,27.17
2022-10-31T19:43:53.537Z,23.77
2022-10-31T19:46:47.835Z,30.53
2022-10-31T19:49:12.021Z,23.80
2022-10-31T19:51:38.979Z,25.97
2022-10-31T19:54:06.442Z,30.10
2022-10-31T19:56:33.814Z,26.40
2022-10-31T19:59:00.840Z,28.00
2022-10-31T20:01:28.222Z,26.07
2022-10-31T20:03:55.278Z,21.40
2022-10-31T20:06:29.782Z,22.70
2022-10-31T20:08:57.560Z,23.90
2022-10-31T20:11:27.643Z,19.20
2022-10-31T20:14:00.861Z,22.70
2022-10-31T20:16:28.695Z,19.70
2022-10-31T20:18:56.375Z,18.57
2022-10-31T20:21:30.158Z,23.97
2022-10-31T20:24:03.993Z,18.70
2022-10-31T20:26:33.048Z,19.50
2022-10-31T20:29:01.954Z,19.40
2022-10-31T20:31:36.038Z,21.10
2022-10-31T20:34:03.792Z,18.40
2022-10-31T20:36:31.172Z,23.27
2022-10-31T20:39:00.500Z,24.17
2022-10-31T20:41:27.530Z,21.37
2022-10-31T20:43:55.185Z,25.03
2022-10-31T20:46:26.357Z,24.20
2022-10-31T20:48:54.492Z,23.53
2022-10-31T20:51:28.748Z,22.93
2022-10-31T20:53:58.080Z,22.30
2022-10-31T20:56:28.412Z,25.33
2022-10-31T20:58:56.950Z,21.60
2022-10-31T21:01:30.857Z,28.63
2022-10-31T21:03:59.103Z,22.73
2022-10-31T21:06:27.198Z,21.03
2022-10-31T21:08:54.891Z,22.20
2022-10-31T21:11:25.315Z,24.40
2022-10-31T21:13:53.433Z,23.77
2022-10-31T21:16:31.472Z,27.80
2022-10-31T21:19:01.130Z,18.57
2022-10-31T21:21:32.847Z,24.30
2022-10-31T21:24:07.296Z,22.17
2022-10-31T21:26:39.306Z,22.20
2022-10-31T21:29:07.672Z,21.17
2022-10-31T21:31:36.992Z,21.53
2022-10-31T21:34:04.457Z,22.50
2022-10-31T21:36:32.001Z,23.33
2022-10-31T21:38:58.977Z,22.43
2022-10-31T21:41:28.809Z,22.87
2022-10-31T21:43:56.018Z,22.60
2022-10-31T21:46:29.827Z,21.63
2022-10-31T21:48:57.469Z,24.07
2022-10-31T21:51:34.706Z,27.67
2022-10-31T21:54:21.575Z,26.83
2022-10-31T21:56:48.732Z,27.67
2022-10-31T21:59:15.820Z,28.90
2022-10-31T22:01:42.903Z,28.20
2022-10-31T22:04:10.532Z,33.93
2022-10-31T22:06:38.249Z,26.93
2022-10-31T22:09:08.662Z,30.40
2022-10-31T22:11:36.011Z,21.20
2022-10-31T22:14:04.213Z,27.97
2022-10-31T22:16:36.570Z,25.90
2022-10-31T22:19:06.578Z,27.27
2022-10-31T22:21:44.798Z,30.47
2022-10-31T22:24:12.386Z,32.97
2022-10-31T22:26:40.343Z,26.70
2022-10-31T22:29:13.172Z,25.67
2022-10-31T22:31:44.233Z,27.33
2022-10-31T22:34:13.307Z,38.50
2022-10-31T22:36:41.182Z,33.00
2022-10-31T22:39:09.817Z,29.60
2022-10-31T22:41:37.273Z,27.87
2022-10-31T22:44:05.547Z,24.60
2022-10-31T22:46:37.110Z,28.57
2022-10-31T22:49:10.014Z,33.63
2022-10-31T22:51:39.602Z,28.07
2022-10-31T22:54:12.812Z,31.10
2022-10-31T22:56:40.002Z,26.03
2022-10-31T22:59:07.084Z,28.83
2022-10-31T23:01:34.845Z,29.10
2022-10-31T23:04:02.751Z,31.80
2022-10-31T23:06:32.173Z,27.00
2022-10-31T23:09:05.259Z,26.23
2022-10-31T23:11:39.754Z,24.83
2022-10-31T23:14:16.566Z,33.17
2022-10-31T23:16:52.281Z,31.20
2022-10-31T23:19:29.206Z,25.23
2022-10-31T23:22:03.079Z,29.10
2022-10-31T23:24:32.932Z,22.97
2022-10-31T23:27:09.463Z,25.27
2022-10-31T23:29:49.527Z,23.30
2022-10-31T23:32:28.114Z,27.43
2022-10-31T23:35:01.010Z,30.70
2022-10-31T23:37:32.479Z,33.10
2022-10-31T23:39:59.997Z,31.30
2022-10-31T23:42:28.472Z,28.13
2022-10-31T23:44:56.479Z,33.53
2022-10-31T23:47:24.194Z,49.13
2022-10-31T23:49:51.361Z,34.33
2022-10-31T23:52:19.212Z,29.07
2022-10-31T23:54:46.214Z,35.07
2022-10-31T23:57:15.437Z,34.90
2022-10-31T23:59:43.036Z,32.07
